Atlantic Clover — 3FVD6 — position and weather

sailwx.info

Track history (hours):
 
Tides and Currents Weather Stations Pressure Air Temp Water Temp Dewpoint Dewpoint Depression Visibility Wind Speed Wind Dir Waves Ship Positions

Atlantic Clover

Last reported at 2016-May-23 16:31 UTC. Time now 2016-May-24 17:46 UTC.
Position N 33°08' W 008°37'.

Length 180 m; draft 9 m.

Type: Cargo ship. MMSI: 371263000.

Date/timePositionNaut miles runAvg speedWind from/ knotsBaromVisibWave heightAir tempDewpointWater temp
2016-May-23 16:31N 33°08' W 008°37'0 0.0
2016-May-23 15:28N 33°08' W 008°37'  
2016-May-21 01:32N 33°09' W 008°42'0 0.0
2016-May-21 00:14N 33°09' W 008°42'195 4.4
2016-May-19 04:23N 36°16' W 009°49'6513.2
2016-May-18 23:28N 37°19' W 010°08'2512.5
2016-May-18 21:26N 37°44' W 010°14'1112.4
2016-May-18 20:33N 37°54' W 010°16'1312.8
2016-May-18 19:32N 38°07' W 010°18'1313.0
2016-May-18 18:33N 38°20' W 010°20'1513.2
2016-May-18 17:23N 38°35' W 010°23'1113.3
2016-May-18 16:32N 38°46' W 010°26'1413.5
2016-May-18 15:28N 39°00' W 010°28'2512.9
2016-May-18 13:32N 39°25' W 010°30'1412.9
2016-May-18 12:29N 39°39' W 010°30'62112.4
2016-May-16 10:33N 49°14' W 004°60'2612.9
2016-May-16 08:33N 49°27' W 004°26'1313.4
2016-May-16 07:33N 49°34' W 004°09'1313.4
2016-May-16 06:33N 49°41' W 003°51'1313.1
2016-May-16 05:33N 49°48' W 003°34'1212.5
2016-May-16 04:33N 49°54' W 003°17'1211.9
2016-May-16 03:33N 49°58' W 002°60'1211.9
2016-May-16 02:33N 50°01' W 002°41'2412.0
2016-May-16 00:31N 50°07' W 002°05'1313.2
2016-May-15 23:33N 50°11' W 001°46'1414.1
2016-May-15 22:33N 50°15' W 001°24'1514.6
2016-May-15 21:34N 50°19' W 001°02'1414.3
2016-May-15 20:33N 50°23' W 000°41'1313.3
2016-May-15 19:33N 50°26' W 000°21'1312.6
2016-May-15 18:33N 50°30' W 000°02'1211.9
2016-May-15 17:33N 50°33' E 000°16'1511.3
2016-May-15 16:14N 50°38' E 000°39'2012.0
2016-May-15 14:33N 50°50' E 001°04'1313.4
2016-May-15 13:33N 50°60' E 001°19'1414.3
2016-May-15 12:33N 51°08' E 001°37'1413.5
2016-May-15 11:33N 51°21' E 001°44'1010.3
2016-May-15 10:33N 51°30' E 001°35'4 3.9
2016-May-15 09:33N 51°30' E 001°29'0 0.1
2016-May-15 08:33N 51°30' E 001°29'0 0.1
2016-May-15 07:33N 51°30' E 001°29'0 0.0
2016-May-15 06:33N 51°30' E 001°29'0 0.0
2016-May-15 05:33N 51°30' E 001°29'0 0.0
2016-May-15 04:33N 51°30' E 001°29'0 0.0
2016-May-15 03:33N 51°30' E 001°29'0 0.0
2016-May-15 02:33N 51°30' E 001°29'0 0.0
2016-May-15 01:33N 51°30' E 001°29'0 0.0
2016-May-15 00:33N 51°30' E 001°29'0 0.1
2016-May-14 23:33N 51°30' E 001°29'3 3.3
2016-May-14 22:33N 51°27' E 001°31'1312.5
2016-May-14 21:34N 51°29' E 001°11'1313.4
2016-May-14 20:33N 51°29' E 000°49'1313.2
2016-May-14 19:33N 51°29' E 000°28'5 5.0
2016-May-14 18:33N 51°27' E 000°21'0 0.5
2016-May-14 17:34N 51°28' E 000°21'0 0.0
2016-May-14 16:34N 51°28' E 000°21'0 0.0
2016-May-14 15:34N 51°28' E 000°21'0 0.0
2016-May-14 14:33N 51°28' E 000°21'0 0.0
2016-May-14 13:34N 51°28' E 000°21'0 0.0
2016-May-14 12:33N 51°28' E 000°21'0 0.0
2016-May-14 11:34N 51°28' E 000°21'0 0.0
2016-May-14 10:33N 51°28' E 000°21'0 0.0
2016-May-14 09:33N 51°28' E 000°21'0 0.0
2016-May-14 08:33N 51°28' E 000°21'0 0.0
2016-May-14 07:33N 51°28' E 000°21'0 0.0
2016-May-14 06:33N 51°28' E 000°21'0 0.0
2016-May-14 05:33N 51°28' E 000°21'0 0.0
2016-May-14 04:33N 51°28' E 000°21'0 0.0
2016-May-14 03:33N 51°28' E 000°21'0 0.0
2016-May-14 02:34N 51°28' E 000°21'0 0.0
2016-May-14 01:34N 51°28' E 000°21'0 0.0
2016-May-14 00:33N 51°28' E 000°21'0 0.0
2016-May-13 23:33N 51°28' E 000°21'0 0.0
2016-May-13 22:33N 51°28' E 000°21'0 0.0
2016-May-13 21:33N 51°28' E 000°21'0 0.0
2016-May-13 20:34N 51°28' E 000°21'0 0.0
2016-May-13 19:33N 51°28' E 000°21'0 0.0
2016-May-13 18:34N 51°28' E 000°21'0 0.0
2016-May-13 17:34N 51°28' E 000°21'0 0.0
2016-May-13 16:34N 51°28' E 000°21'  
Track history (hours):
 
Tides and Currents Weather Stations Pressure Air Temp Water Temp Dewpoint Dewpoint Depression Visibility Wind Speed Wind Dir Waves Ship Positions

Atlantic Clover

Last reported at 2016-May-23 16:31 UTC. Time now 2016-May-24 17:46 UTC.
Position N 33°08' W 008°37'.

Length 180 m; draft 9 m.

Type: Cargo ship. MMSI: 371263000.

Date/timePositionNaut miles runAvg speedWind from/ knotsBaromVisibWave heightAir tempDewpointWater temp
2016-May-23 16:31N 33°08' W 008°37'0 0.0
2016-May-23 15:28N 33°08' W 008°37'  
2016-May-21 01:32N 33°09' W 008°42'0 0.0
2016-May-21 00:14N 33°09' W 008°42'195 4.4
2016-May-19 04:23N 36°16' W 009°49'6513.2
2016-May-18 23:28N 37°19' W 010°08'2512.5
2016-May-18 21:26N 37°44' W 010°14'1112.4
2016-May-18 20:33N 37°54' W 010°16'1312.8
2016-May-18 19:32N 38°07' W 010°18'1313.0
2016-May-18 18:33N 38°20' W 010°20'1513.2
2016-May-18 17:23N 38°35' W 010°23'1113.3
2016-May-18 16:32N 38°46' W 010°26'1413.5
2016-May-18 15:28N 39°00' W 010°28'2512.9
2016-May-18 13:32N 39°25' W 010°30'1412.9
2016-May-18 12:29N 39°39' W 010°30'62112.4
2016-May-16 10:33N 49°14' W 004°60'2612.9
2016-May-16 08:33N 49°27' W 004°26'1313.4
2016-May-16 07:33N 49°34' W 004°09'1313.4
2016-May-16 06:33N 49°41' W 003°51'1313.1
2016-May-16 05:33N 49°48' W 003°34'1212.5
2016-May-16 04:33N 49°54' W 003°17'1211.9
2016-May-16 03:33N 49°58' W 002°60'1211.9
2016-May-16 02:33N 50°01' W 002°41'2412.0
2016-May-16 00:31N 50°07' W 002°05'1313.2
2016-May-15 23:33N 50°11' W 001°46'1414.1
2016-May-15 22:33N 50°15' W 001°24'1514.6
2016-May-15 21:34N 50°19' W 001°02'1414.3
2016-May-15 20:33N 50°23' W 000°41'1313.3
2016-May-15 19:33N 50°26' W 000°21'1312.6
2016-May-15 18:33N 50°30' W 000°02'1211.9
2016-May-15 17:33N 50°33' E 000°16'1511.3
2016-May-15 16:14N 50°38' E 000°39'2012.0
2016-May-15 14:33N 50°50' E 001°04'1313.4
2016-May-15 13:33N 50°60' E 001°19'1414.3
2016-May-15 12:33N 51°08' E 001°37'1413.5
2016-May-15 11:33N 51°21' E 001°44'1010.3
2016-May-15 10:33N 51°30' E 001°35'4 3.9
2016-May-15 09:33N 51°30' E 001°29'0 0.1
2016-May-15 08:33N 51°30' E 001°29'0 0.1
2016-May-15 07:33N 51°30' E 001°29'0 0.0
2016-May-15 06:33N 51°30' E 001°29'0 0.0
2016-May-15 05:33N 51°30' E 001°29'0 0.0
2016-May-15 04:33N 51°30' E 001°29'0 0.0
2016-May-15 03:33N 51°30' E 001°29'0 0.0
2016-May-15 02:33N 51°30' E 001°29'0 0.0
2016-May-15 01:33N 51°30' E 001°29'0 0.0
2016-May-15 00:33N 51°30' E 001°29'0 0.1
2016-May-14 23:33N 51°30' E 001°29'3 3.3
2016-May-14 22:33N 51°27' E 001°31'1312.5
2016-May-14 21:34N 51°29' E 001°11'1313.4
2016-May-14 20:33N 51°29' E 000°49'1313.2
2016-May-14 19:33N 51°29' E 000°28'5 5.0
2016-May-14 18:33N 51°27' E 000°21'0 0.5
2016-May-14 17:34N 51°28' E 000°21'0 0.0
2016-May-14 16:34N 51°28' E 000°21'0 0.0
2016-May-14 15:34N 51°28' E 000°21'0 0.0
2016-May-14 14:33N 51°28' E 000°21'0 0.0
2016-May-14 13:34N 51°28' E 000°21'0 0.0
2016-May-14 12:33N 51°28' E 000°21'0 0.0
2016-May-14 11:34N 51°28' E 000°21'0 0.0
2016-May-14 10:33N 51°28' E 000°21'0 0.0
2016-May-14 09:33N 51°28' E 000°21'0 0.0
2016-May-14 08:33N 51°28' E 000°21'0 0.0
2016-May-14 07:33N 51°28' E 000°21'0 0.0
2016-May-14 06:33N 51°28' E 000°21'0 0.0
2016-May-14 05:33N 51°28' E 000°21'0 0.0
2016-May-14 04:33N 51°28' E 000°21'0 0.0
2016-May-14 03:33N 51°28' E 000°21'0 0.0
2016-May-14 02:34N 51°28' E 000°21'0 0.0
2016-May-14 01:34N 51°28' E 000°21'0 0.0
2016-May-14 00:33N 51°28' E 000°21'0 0.0
2016-May-13 23:33N 51°28' E 000°21'0 0.0
2016-May-13 22:33N 51°28' E 000°21'0 0.0
2016-May-13 21:33N 51°28' E 000°21'0 0.0
2016-May-13 20:34N 51°28' E 000°21'0 0.0
2016-May-13 19:33N 51°28' E 000°21'0 0.0
2016-May-13 18:34N 51°28' E 000°21'0 0.0
2016-May-13 17:34N 51°28' E 000°21'0 0.0
2016-May-13 16:34N 51°28' E 000°21'  

Dump ship's entire track history